createdAt,value
2023-02-23T00:02:06.312Z,8.07
2023-02-23T00:07:10.451Z,8.40
2023-02-23T00:12:17.125Z,8.55
2023-02-23T00:17:23.103Z,8.88
2023-02-23T00:22:27.067Z,9.48
2023-02-23T00:27:31.820Z,7.28
2023-02-23T00:32:36.868Z,7.28
2023-02-23T00:37:40.334Z,8.55
2023-02-23T00:42:46.570Z,8.75
2023-02-23T00:47:50.690Z,8.00
2023-02-23T00:52:54.134Z,8.30
2023-02-23T00:58:04.062Z,7.78
2023-02-23T01:03:07.437Z,7.78
2023-02-23T01:08:11.748Z,7.82
2023-02-23T01:13:18.039Z,8.35
2023-02-23T01:18:22.741Z,8.15
2023-02-23T01:23:26.114Z,7.80
2023-02-23T01:28:31.002Z,8.32
2023-02-23T01:33:34.399Z,9.02
2023-02-23T01:38:38.342Z,7.75
2023-02-23T01:49:20.102Z,8.50
2023-02-23T01:54:28.981Z,9.13
2023-02-23T01:59:38.723Z,8.27
2023-02-23T02:04:45.522Z,9.40
2023-02-23T02:10:18.110Z,7.80
2023-02-23T02:15:25.981Z,7.10
2023-02-23T02:21:30.661Z,8.15
2023-02-23T02:26:48.877Z,7.38
2023-02-23T02:32:47.350Z,7.25
2023-02-23T02:38:19.303Z,8.57
2023-02-23T02:43:37.361Z,8.00
2023-02-23T02:54:06.594Z,7.45
2023-02-23T02:59:33.139Z,6.47
2023-02-23T03:04:54.563Z,7.10
2023-02-23T03:10:28.035Z,7.10
2023-02-23T03:16:02.480Z,8.10
2023-02-23T03:21:34.506Z,8.10
2023-02-23T03:27:04.598Z,8.02
2023-02-23T03:32:33.338Z,7.68
2023-02-23T03:38:01.962Z,6.80
2023-02-23T03:43:29.904Z,7.20
2023-02-23T03:48:53.750Z,7.07
2023-02-23T03:54:21.096Z,7.07
2023-02-23T03:59:49.489Z,7.90
2023-02-23T04:05:13.447Z,6.70
2023-02-23T04:10:35.282Z,6.80
2023-02-23T04:15:50.784Z,7.07
2023-02-23T04:20:55.132Z,8.10
2023-02-23T04:25:59.141Z,6.78
2023-02-23T04:31:04.064Z,6.78
2023-02-23T04:36:08.811Z,6.85
2023-02-23T04:41:12.257Z,6.90
2023-02-23T04:46:17.140Z,7.25
2023-02-23T04:51:20.780Z,6.97
2023-02-23T04:56:24.239Z,6.60
2023-02-23T05:01:29.422Z,7.55
2023-02-23T05:06:34.178Z,8.23
2023-02-23T05:11:38.097Z,6.75
2023-02-23T05:16:42.834Z,6.75
2023-02-23T05:21:46.500Z,5.88
2023-02-23T05:26:49.990Z,6.55
2023-02-23T05:31:54.901Z,6.60
2023-02-23T05:36:58.377Z,6.60
2023-02-23T05:42:02.440Z,6.65
2023-02-23T05:47:07.209Z,7.18
2023-02-23T05:52:10.594Z,7.00
2023-02-23T05:57:14.167Z,7.15
2023-02-23T06:02:18.934Z,6.70
2023-02-23T06:07:22.323Z,6.80
2023-02-23T06:12:25.806Z,5.95
2023-02-23T06:17:30.831Z,7.05
2023-02-23T06:22:34.247Z,7.03
2023-02-23T06:27:37.709Z,5.65
2023-02-23T06:32:42.909Z,6.15
2023-02-23T06:37:50.204Z,5.65
2023-02-23T06:42:53.663Z,6.53
2023-02-23T06:47:58.490Z,6.00
2023-02-23T06:53:02.027Z,5.85
2023-02-23T06:58:07.159Z,5.88
2023-02-23T07:03:12.148Z,6.88
2023-02-23T07:08:15.560Z,5.93
2023-02-23T07:13:20.428Z,6.05
2023-02-23T07:18:25.167Z,6.18
2023-02-23T07:23:28.619Z,6.78
2023-02-23T07:28:32.023Z,5.70
2023-02-23T07:33:36.804Z,6.72
2023-02-23T07:38:40.177Z,6.63
2023-02-23T07:43:43.579Z,5.75
2023-02-23T07:48:48.441Z,6.25
2023-02-23T07:53:51.867Z,6.57
2023-02-23T07:58:55.457Z,6.70
2023-02-23T08:04:00.904Z,6.78
2023-02-23T08:09:07.296Z,5.85
2023-02-23T08:14:10.743Z,6.70
2023-02-23T08:19:15.542Z,7.30
2023-02-23T08:24:19.024Z,6.85
2023-02-23T08:29:22.506Z,6.50
2023-02-23T08:34:27.302Z,6.43
2023-02-23T08:39:30.720Z,6.97
2023-02-23T08:44:34.134Z,6.32
2023-02-23T08:49:38.935Z,8.05
2023-02-23T08:54:42.303Z,7.30
2023-02-23T08:59:45.735Z,7.00
2023-02-23T09:04:53.914Z,6.05
2023-02-23T09:09:58.392Z,6.25
2023-02-23T09:15:02.272Z,7.03
2023-02-23T09:20:09.379Z,7.43
2023-02-23T09:25:14.481Z,7.38
2023-02-23T09:30:20.561Z,6.22
2023-02-23T09:35:26.565Z,7.28
2023-02-23T09:40:39.115Z,7.10
2023-02-23T09:45:45.500Z,6.82
2023-02-23T09:50:54.279Z,7.68
2023-02-23T09:56:00.185Z,8.43
2023-02-23T10:01:39.396Z,7.07
2023-02-23T10:06:51.655Z,7.65
2023-02-23T10:12:08.113Z,6.85
2023-02-23T10:17:30.586Z,7.63
2023-02-23T10:22:37.130Z,7.20
2023-02-23T10:27:47.404Z,6.20
2023-02-23T10:33:00.628Z,6.82
2023-02-23T10:38:05.442Z,7.47
2023-02-23T10:43:10.622Z,7.80
2023-02-23T10:48:21.676Z,7.65
2023-02-23T10:53:32.733Z,8.05
2023-02-23T10:58:46.402Z,7.47
2023-02-23T11:04:05.433Z,6.85
2023-02-23T11:09:43.893Z,6.63
2023-02-23T11:14:50.321Z,7.93
2023-02-23T11:20:02.432Z,7.50
2023-02-23T11:25:22.007Z,6.40
2023-02-23T11:30:38.072Z,6.55
2023-02-23T11:35:41.655Z,7.30
2023-02-23T11:41:01.812Z,6.95
2023-02-23T11:46:05.773Z,6.97
2023-02-23T11:51:09.457Z,5.63
2023-02-23T11:56:23.829Z,7.10
2023-02-23T12:01:45.578Z,6.95
2023-02-23T12:06:49.037Z,6.57
2023-02-23T12:12:02.279Z,6.78
2023-02-23T12:17:14.492Z,7.32
2023-02-23T12:22:23.872Z,6.70
2023-02-23T12:27:39.081Z,7.00
2023-02-23T12:32:51.254Z,6.80
2023-02-23T12:38:01.717Z,5.88
2023-02-23T12:43:17.303Z,6.43
2023-02-23T12:48:34.547Z,6.53
2023-02-23T12:53:43.111Z,5.87
2023-02-23T12:59:00.989Z,7.13
2023-02-23T13:04:39.680Z,6.80
2023-02-23T13:09:59.674Z,6.93
2023-02-23T13:15:23.649Z,6.78
2023-02-23T13:20:36.563Z,6.60
2023-02-23T13:25:54.168Z,6.30
2023-02-23T13:30:59.191Z,6.38
2023-02-23T13:36:03.636Z,6.97
2023-02-23T13:41:19.276Z,5.32
2023-02-23T13:46:37.267Z,6.22
2023-02-23T13:51:47.858Z,7.57
2023-02-23T13:56:56.672Z,7.32
2023-02-23T14:02:25.967Z,6.65
2023-02-23T14:07:33.384Z,5.38
2023-02-23T14:12:40.707Z,6.10
2023-02-23T14:17:58.264Z,6.33
2023-02-23T14:23:29.980Z,6.07
2023-02-23T14:28:39.010Z,6.28
2023-02-23T14:33:59.744Z,6.10
2023-02-23T14:39:09.585Z,6.30
2023-02-23T14:44:29.028Z,5.80
2023-02-23T14:49:41.356Z,6.13
2023-02-23T14:54:44.750Z,7.28
2023-02-23T14:59:57.899Z,5.57
2023-02-23T15:05:17.033Z,5.97
2023-02-23T15:10:27.581Z,6.53
2023-02-23T15:15:31.781Z,5.50
2023-02-23T15:25:42.070Z,5.40
2023-02-23T15:30:49.020Z,6.55
2023-02-23T15:36:02.760Z,6.30
2023-02-23T15:41:10.735Z,6.25
2023-02-23T15:46:24.530Z,6.32
2023-02-23T15:51:37.577Z,6.05
2023-02-23T15:56:41.715Z,5.55
2023-02-23T16:01:47.481Z,5.53
2023-02-23T16:06:55.897Z,5.38
2023-02-23T16:12:05.837Z,5.13
2023-02-23T16:17:14.011Z,5.95
2023-02-23T16:22:27.596Z,5.97
2023-02-23T16:27:31.817Z,4.63
2023-02-23T16:32:39.602Z,6.07
2023-02-23T16:38:02.495Z,6.60
2023-02-23T16:43:05.936Z,5.28
2023-02-23T16:48:15.353Z,5.13
2023-02-23T16:53:20.175Z,5.68
2023-02-23T16:58:27.016Z,6.90
2023-02-23T17:03:31.418Z,5.57
2023-02-23T17:08:41.273Z,6.57
2023-02-23T17:13:46.875Z,5.95
2023-02-23T17:18:50.276Z,6.60
2023-02-23T17:24:02.569Z,7.15
2023-02-23T17:29:06.124Z,6.90
2023-02-23T17:34:09.740Z,6.78
2023-02-23T17:39:16.790Z,7.05
2023-02-23T17:44:20.258Z,7.38
2023-02-23T17:49:23.645Z,6.45
2023-02-23T17:54:29.896Z,7.75
2023-02-23T17:59:33.294Z,7.28
2023-02-23T18:04:36.662Z,7.40
2023-02-23T18:09:41.701Z,8.95
2023-02-23T18:14:45.779Z,7.47
2023-02-23T18:19:51.081Z,8.95
2023-02-23T18:24:57.292Z,8.00
2023-02-23T18:30:01.551Z,7.55
2023-02-23T18:35:05.770Z,7.70
2023-02-23T18:40:21.115Z,8.85
2023-02-23T18:45:24.567Z,8.45
2023-02-23T18:50:28.505Z,8.23
2023-02-23T18:55:33.510Z,9.68
2023-02-23T19:00:40.143Z,7.78
2023-02-23T19:05:53.177Z,6.97
2023-02-23T19:10:59.056Z,7.50
2023-02-23T19:16:05.584Z,7.90
2023-02-23T19:21:09.313Z,7.50
2023-02-23T19:26:15.136Z,7.72
2023-02-23T19:31:22.617Z,8.57
2023-02-23T19:36:31.686Z,8.45
2023-02-23T19:41:36.480Z,9.02
2023-02-23T19:46:42.855Z,7.85
2023-02-23T19:51:47.697Z,8.20
2023-02-23T19:56:53.186Z,9.13
2023-02-23T20:01:56.650Z,7.30
2023-02-23T20:07:00.093Z,8.25
2023-02-23T20:12:05.835Z,9.15
2023-02-23T20:17:09.227Z,8.07
2023-02-23T20:22:12.715Z,9.07
2023-02-23T20:27:19.250Z,10.60
2023-02-23T20:32:22.797Z,9.88
2023-02-23T20:37:26.321Z,8.77
2023-02-23T20:42:31.058Z,11.32
2023-02-23T20:47:34.758Z,9.80
2023-02-23T20:52:38.553Z,9.88
2023-02-23T20:57:43.344Z,9.23
2023-02-23T21:02:47.153Z,9.25
2023-02-23T21:07:50.841Z,9.30
2023-02-23T21:12:55.933Z,11.20
2023-02-23T21:18:00.434Z,10.48
2023-02-23T21:23:04.193Z,10.82
2023-02-23T21:28:08.994Z,11.00
2023-02-23T21:33:12.378Z,10.32
2023-02-23T21:38:15.804Z,9.07
2023-02-23T21:43:20.654Z,9.57
2023-02-23T21:48:25.611Z,10.32
2023-02-23T21:53:29.002Z,10.55
2023-02-23T21:58:33.893Z,11.13
2023-02-23T22:03:37.392Z,10.07
2023-02-23T22:08:43.028Z,9.95
2023-02-23T22:13:49.325Z,10.38
2023-02-23T22:18:53.021Z,11.10
2023-02-23T22:23:56.467Z,9.93
2023-02-23T22:29:01.394Z,10.63
2023-02-23T22:34:06.268Z,11.20
2023-02-23T22:39:10.302Z,10.23
2023-02-23T22:44:19.331Z,11.48
2023-02-23T22:49:22.813Z,10.45
2023-02-23T22:54:26.597Z,11.02
2023-02-23T22:59:31.324Z,10.98
2023-02-23T23:04:35.312Z,11.15
2023-02-23T23:09:39.917Z,12.05
2023-02-23T23:14:47.309Z,10.95
2023-02-23T23:19:50.969Z,11.20
2023-02-23T23:24:54.628Z,10.43
2023-02-23T23:29:59.414Z,11.77
2023-02-23T23:35:04.064Z,11.65
2023-02-23T23:40:14.446Z,11.27
2023-02-23T23:45:24.075Z,9.80
2023-02-23T23:50:27.742Z,11.93
2023-02-23T23:55:31.601Z,10.45
